sensor_id;sensor_type;location;lat;lon;timestamp;P1;durP1;ratioP1;P2;durP2;ratioP2
7365;SDS011;3723;52.220;8.792;2022-07-25T00:00:57;10.10;;;2.90;;
7365;SDS011;3723;52.220;8.792;2022-07-25T00:07:27;10.30;;;3.17;;
7365;SDS011;3723;52.220;8.792;2022-07-25T00:10:39;10.80;;;2.90;;
7365;SDS011;3723;52.220;8.792;2022-07-25T00:43:57;11.47;;;3.20;;
7365;SDS011;3723;52.220;8.792;2022-07-25T00:53:20;11.20;;;3.70;;
7365;SDS011;3723;52.220;8.792;2022-07-25T01:13:22;9.13;;;2.57;;
7365;SDS011;3723;52.220;8.792;2022-07-25T01:19:48;17.63;;;3.47;;
7365;SDS011;3723;52.220;8.792;2022-07-25T01:36:12;9.90;;;3.07;;
7365;SDS011;3723;52.220;8.792;2022-07-25T03:38:08;10.03;;;2.70;;
7365;SDS011;3723;52.220;8.792;2022-07-25T05:04:12;9.40;;;1.60;;
7365;SDS011;3723;52.220;8.792;2022-07-25T05:12:09;8.47;;;1.80;;
7365;SDS011;3723;52.220;8.792;2022-07-25T05:14:35;6.87;;;1.10;;
7365;SDS011;3723;52.220;8.792;2022-07-25T05:17:03;8.87;;;1.80;;
7365;SDS011;3723;52.220;8.792;2022-07-25T05:19:31;7.70;;;1.40;;
7365;SDS011;3723;52.220;8.792;2022-07-25T05:21:59;7.97;;;1.70;;
7365;SDS011;3723;52.220;8.792;2022-07-25T05:24:26;7.10;;;1.30;;
7365;SDS011;3723;52.220;8.792;2022-07-25T05:26:52;9.37;;;1.20;;
7365;SDS011;3723;52.220;8.792;2022-07-25T05:29:19;7.37;;;1.30;;
7365;SDS011;3723;52.220;8.792;2022-07-25T05:31:46;6.90;;;1.27;;
7365;SDS011;3723;52.220;8.792;2022-07-25T05:34:13;7.83;;;1.53;;
7365;SDS011;3723;52.220;8.792;2022-07-25T05:36:41;6.97;;;1.33;;
7365;SDS011;3723;52.220;8.792;2022-07-25T05:39:08;9.40;;;1.83;;
7365;SDS011;3723;52.220;8.792;2022-07-25T05:41:35;10.23;;;1.87;;
7365;SDS011;3723;52.220;8.792;2022-07-25T05:44:03;6.80;;;1.20;;
7365;SDS011;3723;52.220;8.792;2022-07-25T05:46:30;10.07;;;2.00;;
7365;SDS011;3723;52.220;8.792;2022-07-25T05:48:58;11.23;;;1.60;;
7365;SDS011;3723;52.220;8.792;2022-07-25T05:51:25;7.00;;;1.40;;
7365;SDS011;3723;52.220;8.792;2022-07-25T05:53:53;8.30;;;1.70;;
7365;SDS011;3723;52.220;8.792;2022-07-25T05:56:20;7.50;;;1.60;;
7365;SDS011;3723;52.220;8.792;2022-07-25T05:58:47;7.70;;;1.50;;
7365;SDS011;3723;52.220;8.792;2022-07-25T06:01:14;7.43;;;1.40;;
7365;SDS011;3723;52.220;8.792;2022-07-25T06:03:42;7.53;;;1.30;;
7365;SDS011;3723;52.220;8.792;2022-07-25T06:06:09;8.03;;;1.50;;
7365;SDS011;3723;52.220;8.792;2022-07-25T06:08:36;7.63;;;1.57;;
7365;SDS011;3723;52.220;8.792;2022-07-25T06:11:05;6.80;;;0.97;;
7365;SDS011;3723;52.220;8.792;2022-07-25T06:13:32;10.27;;;1.70;;
7365;SDS011;3723;52.220;8.792;2022-07-25T06:16:00;6.90;;;1.30;;
7365;SDS011;3723;52.220;8.792;2022-07-25T06:18:27;7.20;;;1.37;;
7365;SDS011;3723;52.220;8.792;2022-07-25T06:20:54;7.00;;;1.20;;
7365;SDS011;3723;52.220;8.792;2022-07-25T06:23:21;7.13;;;1.30;;
7365;SDS011;3723;52.220;8.792;2022-07-25T06:25:48;7.13;;;1.43;;
7365;SDS011;3723;52.220;8.792;2022-07-25T06:28:16;8.40;;;1.47;;
7365;SDS011;3723;52.220;8.792;2022-07-25T06:30:43;7.60;;;1.57;;
7365;SDS011;3723;52.220;8.792;2022-07-25T06:33:11;7.33;;;1.73;;
7365;SDS011;3723;52.220;8.792;2022-07-25T06:35:38;7.27;;;1.20;;
7365;SDS011;3723;52.220;8.792;2022-07-25T06:38:05;7.90;;;1.90;;
7365;SDS011;3723;52.220;8.792;2022-07-25T06:40:31;8.73;;;1.67;;
7365;SDS011;3723;52.220;8.792;2022-07-25T06:42:58;7.53;;;1.70;;
7365;SDS011;3723;52.220;8.792;2022-07-25T06:45:26;7.73;;;1.30;;
7365;SDS011;3723;52.220;8.792;2022-07-25T06:47:53;8.50;;;1.70;;
7365;SDS011;3723;52.220;8.792;2022-07-25T06:50:20;8.73;;;1.83;;
7365;SDS011;3723;52.220;8.792;2022-07-25T06:52:47;8.63;;;1.63;;
7365;SDS011;3723;52.220;8.792;2022-07-25T06:55:14;8.33;;;1.90;;
7365;SDS011;3723;52.220;8.792;2022-07-25T06:57:41;8.00;;;1.70;;
7365;SDS011;3723;52.220;8.792;2022-07-25T07:00:09;7.50;;;1.53;;
7365;SDS011;3723;52.220;8.792;2022-07-25T07:02:47;11.20;;;2.00;;
7365;SDS011;3723;52.220;8.792;2022-07-25T07:05:15;8.57;;;1.87;;
7365;SDS011;3723;52.220;8.792;2022-07-25T07:07:42;8.77;;;2.40;;
7365;SDS011;3723;52.220;8.792;2022-07-25T07:10:09;10.60;;;1.70;;
7365;SDS011;3723;52.220;8.792;2022-07-25T07:12:36;10.00;;;1.73;;
7365;SDS011;3723;52.220;8.792;2022-07-25T07:15:03;8.37;;;1.60;;
7365;SDS011;3723;52.220;8.792;2022-07-25T07:17:31;9.27;;;1.83;;
7365;SDS011;3723;52.220;8.792;2022-07-25T07:19:59;9.10;;;1.70;;
7365;SDS011;3723;52.220;8.792;2022-07-25T07:22:26;8.20;;;1.40;;
7365;SDS011;3723;52.220;8.792;2022-07-25T07:24:53;7.60;;;1.70;;
7365;SDS011;3723;52.220;8.792;2022-07-25T07:27:19;15.70;;;2.50;;
7365;SDS011;3723;52.220;8.792;2022-07-25T07:29:47;10.20;;;1.60;;
7365;SDS011;3723;52.220;8.792;2022-07-25T07:32:14;7.83;;;1.83;;
7365;SDS011;3723;52.220;8.792;2022-07-25T07:34:41;8.40;;;2.00;;
7365;SDS011;3723;52.220;8.792;2022-07-25T07:37:09;8.80;;;2.03;;
7365;SDS011;3723;52.220;8.792;2022-07-25T07:39:36;8.43;;;1.63;;
7365;SDS011;3723;52.220;8.792;2022-07-25T07:42:03;8.90;;;1.90;;
7365;SDS011;3723;52.220;8.792;2022-07-25T07:44:30;7.70;;;1.60;;
7365;SDS011;3723;52.220;8.792;2022-07-25T07:46:57;7.47;;;1.73;;
7365;SDS011;3723;52.220;8.792;2022-07-25T07:49:26;8.40;;;1.90;;
7365;SDS011;3723;52.220;8.792;2022-07-25T07:51:53;8.13;;;1.90;;
7365;SDS011;3723;52.220;8.792;2022-07-25T07:54:22;8.93;;;1.53;;
7365;SDS011;3723;52.220;8.792;2022-07-25T07:57:06;7.77;;;1.90;;
7365;SDS011;3723;52.220;8.792;2022-07-25T07:59:33;9.00;;;1.83;;
7365;SDS011;3723;52.220;8.792;2022-07-25T08:02:00;8.10;;;1.60;;
7365;SDS011;3723;52.220;8.792;2022-07-25T08:04:26;7.70;;;1.40;;
7365;SDS011;3723;52.220;8.792;2022-07-25T08:06:53;8.80;;;2.00;;
7365;SDS011;3723;52.220;8.792;2022-07-25T08:09:21;8.83;;;2.10;;
7365;SDS011;3723;52.220;8.792;2022-07-25T08:11:49;8.40;;;1.50;;
7365;SDS011;3723;52.220;8.792;2022-07-25T08:14:16;8.33;;;1.70;;
7365;SDS011;3723;52.220;8.792;2022-07-25T08:16:43;8.23;;;2.20;;
7365;SDS011;3723;52.220;8.792;2022-07-25T08:19:10;8.80;;;1.93;;
7365;SDS011;3723;52.220;8.792;2022-07-25T08:21:37;8.60;;;2.03;;
7365;SDS011;3723;52.220;8.792;2022-07-25T08:24:04;7.73;;;1.50;;
7365;SDS011;3723;52.220;8.792;2022-07-25T08:26:32;8.53;;;2.17;;
7365;SDS011;3723;52.220;8.792;2022-07-25T08:29:01;8.87;;;2.50;;
7365;SDS011;3723;52.220;8.792;2022-07-25T08:31:28;8.53;;;1.70;;
7365;SDS011;3723;52.220;8.792;2022-07-25T08:33:54;7.70;;;1.67;;
7365;SDS011;3723;52.220;8.792;2022-07-25T08:36:23;8.53;;;2.20;;
7365;SDS011;3723;52.220;8.792;2022-07-25T08:38:49;9.83;;;2.10;;
7365;SDS011;3723;52.220;8.792;2022-07-25T08:41:16;10.97;;;2.20;;
7365;SDS011;3723;52.220;8.792;2022-07-25T08:43:47;9.53;;;1.80;;
7365;SDS011;3723;52.220;8.792;2022-07-25T08:46:15;7.67;;;1.83;;
7365;SDS011;3723;52.220;8.792;2022-07-25T08:48:43;8.93;;;2.23;;
7365;SDS011;3723;52.220;8.792;2022-07-25T08:51:10;9.60;;;1.97;;
7365;SDS011;3723;52.220;8.792;2022-07-25T08:53:37;8.07;;;2.00;;
7365;SDS011;3723;52.220;8.792;2022-07-25T08:56:06;7.70;;;1.90;;
7365;SDS011;3723;52.220;8.792;2022-07-25T08:58:33;8.00;;;1.70;;
7365;SDS011;3723;52.220;8.792;2022-07-25T09:01:02;10.53;;;1.70;;
7365;SDS011;3723;52.220;8.792;2022-07-25T09:03:29;7.90;;;1.90;;
7365;SDS011;3723;52.220;8.792;2022-07-25T09:05:55;8.50;;;1.90;;
7365;SDS011;3723;52.220;8.792;2022-07-25T09:08:24;8.60;;;2.20;;
7365;SDS011;3723;52.220;8.792;2022-07-25T09:10:51;9.03;;;2.00;;
7365;SDS011;3723;52.220;8.792;2022-07-25T09:13:19;9.20;;;2.10;;
7365;SDS011;3723;52.220;8.792;2022-07-25T09:15:49;7.20;;;1.70;;
7365;SDS011;3723;52.220;8.792;2022-07-25T09:18:25;12.77;;;2.47;;
7365;SDS011;3723;52.220;8.792;2022-07-25T09:20:53;11.17;;;1.87;;
7365;SDS011;3723;52.220;8.792;2022-07-25T09:23:26;8.77;;;1.80;;
7365;SDS011;3723;52.220;8.792;2022-07-25T09:26:00;10.47;;;2.13;;
7365;SDS011;3723;52.220;8.792;2022-07-25T09:28:31;14.80;;;2.20;;
7365;SDS011;3723;52.220;8.792;2022-07-25T09:31:04;14.30;;;2.70;;
7365;SDS011;3723;52.220;8.792;2022-07-25T09:33:43;8.37;;;2.03;;
7365;SDS011;3723;52.220;8.792;2022-07-25T09:36:11;8.27;;;1.80;;
7365;SDS011;3723;52.220;8.792;2022-07-25T09:38:39;11.70;;;2.40;;
7365;SDS011;3723;52.220;8.792;2022-07-25T09:41:05;9.07;;;2.00;;
7365;SDS011;3723;52.220;8.792;2022-07-25T09:43:36;9.53;;;2.10;;
7365;SDS011;3723;52.220;8.792;2022-07-25T09:46:03;8.50;;;2.07;;
7365;SDS011;3723;52.220;8.792;2022-07-25T09:48:30;8.60;;;1.87;;
7365;SDS011;3723;52.220;8.792;2022-07-25T09:50:59;8.83;;;2.53;;
7365;SDS011;3723;52.220;8.792;2022-07-25T09:53:26;8.10;;;2.00;;
7365;SDS011;3723;52.220;8.792;2022-07-25T09:55:57;8.07;;;1.60;;
7365;SDS011;3723;52.220;8.792;2022-07-25T09:58:25;8.80;;;1.93;;
7365;SDS011;3723;52.220;8.792;2022-07-25T10:00:53;8.47;;;2.30;;
7365;SDS011;3723;52.220;8.792;2022-07-25T10:03:25;10.47;;;2.83;;
7365;SDS011;3723;52.220;8.792;2022-07-25T10:06:06;8.57;;;1.93;;
7365;SDS011;3723;52.220;8.792;2022-07-25T10:08:40;9.40;;;2.27;;
7365;SDS011;3723;52.220;8.792;2022-07-25T10:11:17;10.43;;;2.20;;
7365;SDS011;3723;52.220;8.792;2022-07-25T10:13:44;8.50;;;2.03;;
7365;SDS011;3723;52.220;8.792;2022-07-25T10:16:15;8.67;;;2.47;;
7365;SDS011;3723;52.220;8.792;2022-07-25T10:18:49;8.60;;;2.13;;
7365;SDS011;3723;52.220;8.792;2022-07-25T10:21:18;8.10;;;1.70;;
7365;SDS011;3723;52.220;8.792;2022-07-25T10:23:56;7.67;;;1.90;;
7365;SDS011;3723;52.220;8.792;2022-07-25T10:26:24;9.27;;;2.60;;
7365;SDS011;3723;52.220;8.792;2022-07-25T10:28:51;8.63;;;1.97;;
7365;SDS011;3723;52.220;8.792;2022-07-25T10:31:20;9.47;;;2.33;;
7365;SDS011;3723;52.220;8.792;2022-07-25T10:33:55;10.30;;;2.57;;
7365;SDS011;3723;52.220;8.792;2022-07-25T10:36:26;10.40;;;2.57;;
7365;SDS011;3723;52.220;8.792;2022-07-25T10:39:06;9.43;;;2.47;;
7365;SDS011;3723;52.220;8.792;2022-07-25T10:41:36;9.73;;;2.07;;
7365;SDS011;3723;52.220;8.792;2022-07-25T10:44:09;9.67;;;2.73;;
7365;SDS011;3723;52.220;8.792;2022-07-25T10:46:37;10.63;;;1.90;;
7365;SDS011;3723;52.220;8.792;2022-07-25T10:49:04;8.37;;;1.80;;
7365;SDS011;3723;52.220;8.792;2022-07-25T10:51:34;8.40;;;1.73;;
7365;SDS011;3723;52.220;8.792;2022-07-25T10:54:12;8.13;;;1.87;;
7365;SDS011;3723;52.220;8.792;2022-07-25T10:56:49;9.30;;;2.50;;
7365;SDS011;3723;52.220;8.792;2022-07-25T10:59:24;10.37;;;1.83;;
7365;SDS011;3723;52.220;8.792;2022-07-25T11:01:52;8.37;;;2.10;;
7365;SDS011;3723;52.220;8.792;2022-07-25T11:04:19;9.27;;;2.63;;
7365;SDS011;3723;52.220;8.792;2022-07-25T11:06:48;8.73;;;1.80;;
7365;SDS011;3723;52.220;8.792;2022-07-25T11:09:15;10.10;;;2.70;;
7365;SDS011;3723;52.220;8.792;2022-07-25T11:11:46;7.50;;;1.80;;
7365;SDS011;3723;52.220;8.792;2022-07-25T11:14:16;8.07;;;2.00;;
7365;SDS011;3723;52.220;8.792;2022-07-25T11:16:44;9.50;;;2.77;;
7365;SDS011;3723;52.220;8.792;2022-07-25T11:19:16;8.77;;;2.10;;
7365;SDS011;3723;52.220;8.792;2022-07-25T11:21:45;8.00;;;2.00;;
7365;SDS011;3723;52.220;8.792;2022-07-25T11:24:14;8.17;;;1.97;;
7365;SDS011;3723;52.220;8.792;2022-07-25T11:26:44;8.90;;;1.73;;
7365;SDS011;3723;52.220;8.792;2022-07-25T11:29:18;7.97;;;2.10;;
7365;SDS011;3723;52.220;8.792;2022-07-25T11:31:56;9.07;;;1.90;;
7365;SDS011;3723;52.220;8.792;2022-07-25T11:34:25;9.17;;;2.57;;
7365;SDS011;3723;52.220;8.792;2022-07-25T11:36:55;9.87;;;2.20;;
7365;SDS011;3723;52.220;8.792;2022-07-25T11:39:28;8.93;;;2.30;;
7365;SDS011;3723;52.220;8.792;2022-07-25T11:42:00;8.83;;;2.43;;
7365;SDS011;3723;52.220;8.792;2022-07-25T11:44:35;8.40;;;2.20;;
7365;SDS011;3723;52.220;8.792;2022-07-25T11:47:04;7.73;;;1.60;;
7365;SDS011;3723;52.220;8.792;2022-07-25T11:49:42;9.47;;;2.33;;
7365;SDS011;3723;52.220;8.792;2022-07-25T11:52:20;7.10;;;1.50;;
7365;SDS011;3723;52.220;8.792;2022-07-25T11:54:52;12.00;;;2.33;;
7365;SDS011;3723;52.220;8.792;2022-07-25T11:57:21;7.50;;;1.60;;
7365;SDS011;3723;52.220;8.792;2022-07-25T11:59:48;7.73;;;1.90;;
7365;SDS011;3723;52.220;8.792;2022-07-25T12:02:22;9.70;;;2.53;;
7365;SDS011;3723;52.220;8.792;2022-07-25T12:04:53;8.57;;;1.87;;
7365;SDS011;3723;52.220;8.792;2022-07-25T12:07:21;10.83;;;2.27;;
7365;SDS011;3723;52.220;8.792;2022-07-25T12:10:04;9.67;;;1.83;;
7365;SDS011;3723;52.220;8.792;2022-07-25T12:12:40;10.50;;;2.33;;
7365;SDS011;3723;52.220;8.792;2022-07-25T12:15:18;9.83;;;2.30;;
7365;SDS011;3723;52.220;8.792;2022-07-25T12:17:46;8.70;;;2.20;;
7365;SDS011;3723;52.220;8.792;2022-07-25T12:20:14;8.67;;;2.33;;
7365;SDS011;3723;52.220;8.792;2022-07-25T12:22:42;9.23;;;2.10;;
7365;SDS011;3723;52.220;8.792;2022-07-25T12:25:10;9.73;;;2.50;;
7365;SDS011;3723;52.220;8.792;2022-07-25T12:27:38;8.80;;;2.83;;
7365;SDS011;3723;52.220;8.792;2022-07-25T12:30:05;9.10;;;2.03;;
7365;SDS011;3723;52.220;8.792;2022-07-25T12:32:33;9.67;;;2.30;;
7365;SDS011;3723;52.220;8.792;2022-07-25T12:35:00;10.43;;;2.00;;
7365;SDS011;3723;52.220;8.792;2022-07-25T12:37:27;8.43;;;2.00;;
7365;SDS011;3723;52.220;8.792;2022-07-25T12:39:54;8.37;;;1.80;;
7365;SDS011;3723;52.220;8.792;2022-07-25T12:42:22;10.83;;;2.40;;
7365;SDS011;3723;52.220;8.792;2022-07-25T12:44:49;7.67;;;1.90;;
7365;SDS011;3723;52.220;8.792;2022-07-25T12:47:17;8.23;;;1.90;;
7365;SDS011;3723;52.220;8.792;2022-07-25T12:49:43;7.50;;;1.80;;
7365;SDS011;3723;52.220;8.792;2022-07-25T12:52:12;8.40;;;2.40;;
7365;SDS011;3723;52.220;8.792;2022-07-25T12:54:40;8.70;;;1.97;;
7365;SDS011;3723;52.220;8.792;2022-07-25T12:57:06;8.83;;;2.20;;
7365;SDS011;3723;52.220;8.792;2022-07-25T12:59:36;8.00;;;1.90;;
7365;SDS011;3723;52.220;8.792;2022-07-25T13:02:03;8.60;;;2.30;;
7365;SDS011;3723;52.220;8.792;2022-07-25T13:04:30;9.70;;;2.50;;
7365;SDS011;3723;52.220;8.792;2022-07-25T13:06:57;7.93;;;2.00;;
7365;SDS011;3723;52.220;8.792;2022-07-25T13:09:24;8.67;;;1.87;;
7365;SDS011;3723;52.220;8.792;2022-07-25T13:11:52;8.87;;;2.03;;
7365;SDS011;3723;52.220;8.792;2022-07-25T13:14:19;8.10;;;2.00;;
7365;SDS011;3723;52.220;8.792;2022-07-25T13:16:47;8.73;;;1.90;;
7365;SDS011;3723;52.220;8.792;2022-07-25T13:19:14;8.80;;;2.10;;
7365;SDS011;3723;52.220;8.792;2022-07-25T13:21:42;8.13;;;2.00;;
7365;SDS011;3723;52.220;8.792;2022-07-25T13:24:10;9.33;;;2.50;;
7365;SDS011;3723;52.220;8.792;2022-07-25T13:26:37;8.93;;;2.03;;
7365;SDS011;3723;52.220;8.792;2022-07-25T13:29:04;8.87;;;2.37;;
7365;SDS011;3723;52.220;8.792;2022-07-25T13:31:32;9.23;;;2.10;;
7365;SDS011;3723;52.220;8.792;2022-07-25T13:34:00;9.37;;;2.43;;
7365;SDS011;3723;52.220;8.792;2022-07-25T13:36:27;9.43;;;2.63;;
7365;SDS011;3723;52.220;8.792;2022-07-25T13:38:54;9.77;;;2.60;;
7365;SDS011;3723;52.220;8.792;2022-07-25T13:41:21;8.00;;;1.77;;
7365;SDS011;3723;52.220;8.792;2022-07-25T13:43:48;8.40;;;2.03;;
7365;SDS011;3723;52.220;8.792;2022-07-25T13:46:15;9.70;;;2.60;;
7365;SDS011;3723;52.220;8.792;2022-07-25T13:48:41;9.47;;;2.43;;
7365;SDS011;3723;52.220;8.792;2022-07-25T13:51:10;9.27;;;2.70;;
7365;SDS011;3723;52.220;8.792;2022-07-25T13:53:37;8.60;;;1.93;;
7365;SDS011;3723;52.220;8.792;2022-07-25T13:56:04;13.00;;;3.17;;
7365;SDS011;3723;52.220;8.792;2022-07-25T13:58:31;10.10;;;2.37;;
7365;SDS011;3723;52.220;8.792;2022-07-25T14:00:57;11.07;;;3.00;;
7365;SDS011;3723;52.220;8.792;2022-07-25T14:03:24;9.63;;;2.33;;
7365;SDS011;3723;52.220;8.792;2022-07-25T14:05:51;11.27;;;3.10;;
7365;SDS011;3723;52.220;8.792;2022-07-25T14:08:25;13.13;;;2.73;;
7365;SDS011;3723;52.220;8.792;2022-07-25T14:10:52;10.63;;;2.53;;
7365;SDS011;3723;52.220;8.792;2022-07-25T14:13:23;9.40;;;2.53;;
7365;SDS011;3723;52.220;8.792;2022-07-25T14:15:50;8.70;;;2.50;;
7365;SDS011;3723;52.220;8.792;2022-07-25T14:18:17;13.30;;;3.10;;
7365;SDS011;3723;52.220;8.792;2022-07-25T14:20:44;9.93;;;2.93;;
7365;SDS011;3723;52.220;8.792;2022-07-25T14:23:20;9.60;;;2.30;;
7365;SDS011;3723;52.220;8.792;2022-07-25T14:25:53;10.70;;;3.30;;
7365;SDS011;3723;52.220;8.792;2022-07-25T14:28:20;9.80;;;3.07;;
7365;SDS011;3723;52.220;8.792;2022-07-25T14:30:47;8.70;;;2.50;;
7365;SDS011;3723;52.220;8.792;2022-07-25T14:33:26;10.27;;;2.70;;
7365;SDS011;3723;52.220;8.792;2022-07-25T14:35:56;9.67;;;2.70;;
7365;SDS011;3723;52.220;8.792;2022-07-25T14:39:19;10.87;;;2.93;;
7365;SDS011;3723;52.220;8.792;2022-07-25T14:41:46;8.43;;;2.00;;
7365;SDS011;3723;52.220;8.792;2022-07-25T14:44:13;10.30;;;2.30;;
7365;SDS011;3723;52.220;8.792;2022-07-25T14:46:45;12.50;;;2.70;;
7365;SDS011;3723;52.220;8.792;2022-07-25T14:49:14;11.93;;;2.60;;
7365;SDS011;3723;52.220;8.792;2022-07-25T14:51:41;11.60;;;2.47;;
7365;SDS011;3723;52.220;8.792;2022-07-25T14:54:17;9.30;;;2.70;;
7365;SDS011;3723;52.220;8.792;2022-07-25T14:56:44;8.87;;;2.97;;
7365;SDS011;3723;52.220;8.792;2022-07-25T14:59:15;9.00;;;2.20;;
7365;SDS011;3723;52.220;8.792;2022-07-25T15:01:51;8.93;;;2.00;;
7365;SDS011;3723;52.220;8.792;2022-07-25T15:04:22;7.93;;;1.70;;
7365;SDS011;3723;52.220;8.792;2022-07-25T15:06:49;8.47;;;1.80;;
7365;SDS011;3723;52.220;8.792;2022-07-25T15:09:37;7.80;;;1.40;;
7365;SDS011;3723;52.220;8.792;2022-07-25T15:12:20;10.53;;;2.87;;
7365;SDS011;3723;52.220;8.792;2022-07-25T15:14:50;11.77;;;1.87;;
7365;SDS011;3723;52.220;8.792;2022-07-25T15:17:17;7.73;;;1.67;;
7365;SDS011;3723;52.220;8.792;2022-07-25T15:19:45;8.53;;;1.70;;
7365;SDS011;3723;52.220;8.792;2022-07-25T15:22:18;8.37;;;1.83;;
7365;SDS011;3723;52.220;8.792;2022-07-25T15:24:50;9.60;;;1.70;;
7365;SDS011;3723;52.220;8.792;2022-07-25T15:30:38;10.83;;;2.03;;
7365;SDS011;3723;52.220;8.792;2022-07-25T15:33:07;10.43;;;2.17;;
7365;SDS011;3723;52.220;8.792;2022-07-25T15:35:34;7.70;;;1.90;;
7365;SDS011;3723;52.220;8.792;2022-07-25T15:41:00;8.23;;;1.50;;
7365;SDS011;3723;52.220;8.792;2022-07-25T15:43:39;8.47;;;1.60;;
7365;SDS011;3723;52.220;8.792;2022-07-25T15:46:16;8.80;;;1.40;;
7365;SDS011;3723;52.220;8.792;2022-07-25T15:49:35;7.20;;;1.20;;
7365;SDS011;3723;52.220;8.792;2022-07-25T15:58:50;7.23;;;1.20;;
7365;SDS011;3723;52.220;8.792;2022-07-25T16:01:30;8.40;;;1.50;;
7365;SDS011;3723;52.220;8.792;2022-07-25T16:04:24;9.33;;;1.77;;
7365;SDS011;3723;52.220;8.792;2022-07-25T16:06:54;7.53;;;1.57;;
7365;SDS011;3723;52.220;8.792;2022-07-25T16:09:22;7.97;;;1.30;;
7365;SDS011;3723;52.220;8.792;2022-07-25T16:12:06;10.13;;;1.00;;
7365;SDS011;3723;52.220;8.792;2022-07-25T16:14:42;8.00;;;1.17;;
7365;SDS011;3723;52.220;8.792;2022-07-25T16:20:20;9.47;;;2.40;;
7365;SDS011;3723;52.220;8.792;2022-07-25T16:22:49;11.80;;;1.40;;
7365;SDS011;3723;52.220;8.792;2022-07-25T16:25:36;7.93;;;1.27;;
7365;SDS011;3723;52.220;8.792;2022-07-25T16:28:06;7.63;;;1.20;;
7365;SDS011;3723;52.220;8.792;2022-07-25T16:30:41;8.07;;;1.10;;
7365;SDS011;3723;52.220;8.792;2022-07-25T16:33:13;7.00;;;1.00;;
7365;SDS011;3723;52.220;8.792;2022-07-25T16:35:49;6.60;;;0.90;;
7365;SDS011;3723;52.220;8.792;2022-07-25T16:38:19;8.57;;;1.53;;
7365;SDS011;3723;52.220;8.792;2022-07-25T16:41:05;7.40;;;0.97;;
7365;SDS011;3723;52.220;8.792;2022-07-25T16:43:34;7.10;;;1.03;;
7365;SDS011;3723;52.220;8.792;2022-07-25T16:46:02;6.97;;;1.30;;
7365;SDS011;3723;52.220;8.792;2022-07-25T16:48:32;6.50;;;0.90;;
7365;SDS011;3723;52.220;8.792;2022-07-25T16:50:59;6.90;;;1.20;;
7365;SDS011;3723;52.220;8.792;2022-07-25T17:03:31;8.40;;;1.60;;
7365;SDS011;3723;52.220;8.792;2022-07-25T17:06:07;9.53;;;1.93;;
7365;SDS011;3723;52.220;8.792;2022-07-25T17:08:51;8.00;;;1.43;;
7365;SDS011;3723;52.220;8.792;2022-07-25T17:11:25;10.50;;;1.20;;
7365;SDS011;3723;52.220;8.792;2022-07-25T17:14:19;8.10;;;1.20;;
7365;SDS011;3723;52.220;8.792;2022-07-25T17:17:27;7.80;;;1.47;;
7365;SDS011;3723;52.220;8.792;2022-07-25T17:20:03;7.70;;;1.30;;
7365;SDS011;3723;52.220;8.792;2022-07-25T17:23:33;9.20;;;1.33;;
7365;SDS011;3723;52.220;8.792;2022-07-25T17:29:02;10.13;;;1.87;;
7365;SDS011;3723;52.220;8.792;2022-07-25T17:31:37;8.30;;;1.60;;
7365;SDS011;3723;52.220;8.792;2022-07-25T17:34:04;12.17;;;2.70;;
7365;SDS011;3723;52.220;8.792;2022-07-25T17:36:48;7.87;;;1.40;;
7365;SDS011;3723;52.220;8.792;2022-07-25T17:39:17;10.13;;;1.43;;
7365;SDS011;3723;52.220;8.792;2022-07-25T17:41:53;7.33;;;1.30;;
7365;SDS011;3723;52.220;8.792;2022-07-25T17:44:22;8.27;;;1.80;;
7365;SDS011;3723;52.220;8.792;2022-07-25T17:47:17;8.17;;;1.10;;
7365;SDS011;3723;52.220;8.792;2022-07-25T17:49:58;8.37;;;1.67;;
7365;SDS011;3723;52.220;8.792;2022-07-25T17:52:35;9.17;;;1.10;;
7365;SDS011;3723;52.220;8.792;2022-07-25T17:55:02;9.73;;;1.13;;
7365;SDS011;3723;52.220;8.792;2022-07-25T17:57:30;6.37;;;0.90;;
7365;SDS011;3723;52.220;8.792;2022-07-25T17:59:58;8.80;;;1.23;;
7365;SDS011;3723;52.220;8.792;2022-07-25T18:02:29;10.33;;;1.40;;
7365;SDS011;3723;52.220;8.792;2022-07-25T18:04:59;10.80;;;1.33;;
7365;SDS011;3723;52.220;8.792;2022-07-25T18:07:27;6.57;;;1.03;;
7365;SDS011;3723;52.220;8.792;2022-07-25T18:09:58;7.00;;;1.00;;
7365;SDS011;3723;52.220;8.792;2022-07-25T18:12:27;9.53;;;1.53;;
7365;SDS011;3723;52.220;8.792;2022-07-25T18:17:47;13.73;;;1.97;;
7365;SDS011;3723;52.220;8.792;2022-07-25T18:20:16;7.17;;;1.20;;
7365;SDS011;3723;52.220;8.792;2022-07-25T18:22:43;7.90;;;1.60;;
7365;SDS011;3723;52.220;8.792;2022-07-25T18:25:11;16.93;;;1.73;;
7365;SDS011;3723;52.220;8.792;2022-07-25T18:27:39;8.63;;;1.10;;
7365;SDS011;3723;52.220;8.792;2022-07-25T18:30:22;8.00;;;1.50;;
7365;SDS011;3723;52.220;8.792;2022-07-25T18:33:01;10.47;;;2.30;;
7365;SDS011;3723;52.220;8.792;2022-07-25T18:35:37;6.93;;;1.00;;
7365;SDS011;3723;52.220;8.792;2022-07-25T18:38:19;7.60;;;1.13;;
7365;SDS011;3723;52.220;8.792;2022-07-25T18:40:49;7.83;;;1.63;;
7365;SDS011;3723;52.220;8.792;2022-07-25T18:43:19;7.80;;;1.20;;
7365;SDS011;3723;52.220;8.792;2022-07-25T18:45:46;10.63;;;1.40;;
7365;SDS011;3723;52.220;8.792;2022-07-25T18:48:17;11.27;;;1.57;;
7365;SDS011;3723;52.220;8.792;2022-07-25T18:51:54;8.27;;;1.40;;
7365;SDS011;3723;52.220;8.792;2022-07-25T18:54:29;7.70;;;1.97;;
7365;SDS011;3723;52.220;8.792;2022-07-25T18:57:27;8.20;;;1.90;;
7365;SDS011;3723;52.220;8.792;2022-07-25T19:00:09;6.93;;;1.23;;
7365;SDS011;3723;52.220;8.792;2022-07-25T19:03:02;7.03;;;1.13;;
7365;SDS011;3723;52.220;8.792;2022-07-25T19:05:38;7.10;;;1.17;;
7365;SDS011;3723;52.220;8.792;2022-07-25T19:08:09;10.10;;;1.90;;
7365;SDS011;3723;52.220;8.792;2022-07-25T19:10:36;8.23;;;1.50;;
7365;SDS011;3723;52.220;8.792;2022-07-25T19:18:46;7.40;;;1.50;;
7365;SDS011;3723;52.220;8.792;2022-07-25T19:24:38;8.50;;;1.50;;
7365;SDS011;3723;52.220;8.792;2022-07-25T19:27:11;7.77;;;1.33;;
7365;SDS011;3723;52.220;8.792;2022-07-25T19:29:57;7.50;;;1.50;;
7365;SDS011;3723;52.220;8.792;2022-07-25T19:32:40;7.73;;;1.20;;
7365;SDS011;3723;52.220;8.792;2022-07-25T19:35:49;14.70;;;1.70;;
7365;SDS011;3723;52.220;8.792;2022-07-25T19:38:02;7.70;;;1.60;;
7365;SDS011;3723;52.220;8.792;2022-07-25T19:40:33;8.20;;;1.50;;
7365;SDS011;3723;52.220;8.792;2022-07-25T19:43:07;7.60;;;1.20;;
7365;SDS011;3723;52.220;8.792;2022-07-25T19:45:35;9.47;;;2.17;;
7365;SDS011;3723;52.220;8.792;2022-07-25T19:54:32;9.50;;;1.93;;
7365;SDS011;3723;52.220;8.792;2022-07-25T19:57:03;9.87;;;2.27;;
7365;SDS011;3723;52.220;8.792;2022-07-25T20:00:15;7.30;;;1.67;;
7365;SDS011;3723;52.220;8.792;2022-07-25T20:03:21;8.67;;;1.37;;
7365;SDS011;3723;52.220;8.792;2022-07-25T20:06:00;9.60;;;1.60;;
7365;SDS011;3723;52.220;8.792;2022-07-25T20:08:36;9.60;;;2.30;;
7365;SDS011;3723;52.220;8.792;2022-07-25T20:11:21;8.33;;;1.37;;
7365;SDS011;3723;52.220;8.792;2022-07-25T20:14:03;12.50;;;1.93;;
7365;SDS011;3723;52.220;8.792;2022-07-25T20:16:41;8.10;;;1.20;;
7365;SDS011;3723;52.220;8.792;2022-07-25T20:19:26;7.90;;;1.27;;
7365;SDS011;3723;52.220;8.792;2022-07-25T20:21:59;8.30;;;1.43;;
7365;SDS011;3723;52.220;8.792;2022-07-25T20:24:29;11.80;;;2.00;;
7365;SDS011;3723;52.220;8.792;2022-07-25T20:27:27;8.10;;;1.47;;
7365;SDS011;3723;52.220;8.792;2022-07-25T20:30:26;8.90;;;1.17;;
7365;SDS011;3723;52.220;8.792;2022-07-25T20:33:19;7.53;;;1.63;;
7365;SDS011;3723;52.220;8.792;2022-07-25T20:35:49;9.43;;;1.53;;
7365;SDS011;3723;52.220;8.792;2022-07-25T20:38:28;7.43;;;1.50;;
7365;SDS011;3723;52.220;8.792;2022-07-25T20:40:58;8.60;;;1.50;;
7365;SDS011;3723;52.220;8.792;2022-07-25T20:44:05;8.83;;;1.20;;
7365;SDS011;3723;52.220;8.792;2022-07-25T20:47:18;9.77;;;1.53;;
7365;SDS011;3723;52.220;8.792;2022-07-25T20:49:45;8.33;;;1.20;;
7365;SDS011;3723;52.220;8.792;2022-07-25T20:52:16;10.57;;;1.50;;
7365;SDS011;3723;52.220;8.792;2022-07-25T20:54:43;6.80;;;1.40;;
7365;SDS011;3723;52.220;8.792;2022-07-25T21:01:00;7.13;;;1.30;;
7365;SDS011;3723;52.220;8.792;2022-07-25T21:06:58;6.93;;;0.97;;
7365;SDS011;3723;52.220;8.792;2022-07-25T21:16:35;8.17;;;1.50;;
7365;SDS011;3723;52.220;8.792;2022-07-25T21:19:14;7.50;;;1.03;;
7365;SDS011;3723;52.220;8.792;2022-07-25T21:21:48;10.87;;;2.10;;
7365;SDS011;3723;52.220;8.792;2022-07-25T21:25:02;7.87;;;1.17;;
7365;SDS011;3723;52.220;8.792;2022-07-25T21:28:09;7.60;;;1.37;;
7365;SDS011;3723;52.220;8.792;2022-07-25T21:30:40;8.63;;;1.63;;